Holloman Air Force Base
KHMN : rendu visible

Aérodrome :











RETROUVEZ-NOUS SUR...

 
LOGIN :

S'inscrire | Disclaimer

   EN    FR    IT 

 









Légende :    VFR   VFR Marginal   IFR   IFR Intensif   IFR Très Intensif
Visi : 
Plafond : 
>= 8 km
>= 3000ft
5 à 8 km
1000 à 3000 ft
1500m à 5 km
500 à 1000 ft
800 à 1500m
200 à 500 ft
< 800m
< 200 ft
Symboles :   Orages  Brouillard  Fortes neiges  Fortes précipitations  Vent > 20 kt






- Altitude de l'aérodrome : 4093 ft


KHMN - Holloman Air Force Base

DERNIER METAR :
  • 211558Z AUTO 15011KT 10SM OVC085 16/07 A2993 RMK AO2 SLP090 T01600067 $

METARs EXPIRÉS :
  • 211458Z AUTO 16007KT 10SM FEW085 11/06 A2992 RMK AO2 SLP095 T01100059 50003 $
  • 211358Z AUTO 17004KT 10SM BKN080 09/05 A2992 RMK AO2 SLP095 T00880054 $

TAF AMD TAF KHMN
Valide du 21 à 11h jusqu'au 22 à 15h UTC


211118Z 2111/2215 18012KT 9999 BKN070 BKN200 QNH2989INS
TEMPO 2118/2120 21015G25KT 8000 -SHRA BKN070 BKN180
BECMG 2119/2120 20015G25KT 8000 -SHRA BKN040 BKN100 QNH2991INS
TEMPO 2120/2124 VRB25G35KT -TSRA BKN040CB
BECMG 2202/2203 24010G15KT 9999 NSW BKN040 BKN080 QNH3001INS
BECMG 2208/2209 22009KT 9999 BKN040 BKN080 QNH3006INS TX17/2120Z TN09/2114Z



MET'MAP, la Météo Aéronautique d'un coup d'oeil ! - Copyright ORBIFLY Décembre 2007 - Disclaimer

ORBIFLY MET'MAP TEAM :

Programmation & Développement : Alexandra Zaïnal
Conception & Développement : Baudouin d'Aumeries
Co-Programmation & Développement : Marc-Olivier Méhu
Soutien technique & logistique : Manuel Goepfert

Contact : metmap@orbifly.com




SOURCES & CREDITS :

   NOAA       Earth
Advisory